createdAt,value
2019-01-03T00:00:37.345Z,1.00
2019-01-03T00:03:38.301Z,0.90
2019-01-03T00:06:41.740Z,0.90
2019-01-03T00:09:39.599Z,0.90
2019-01-03T00:12:45.611Z,0.80
2019-01-03T00:15:56.898Z,0.90
2019-01-03T00:19:08.039Z,0.90
2019-01-03T00:22:15.615Z,0.90
2019-01-03T00:25:19.191Z,0.80
2019-01-03T00:28:36.682Z,0.80
2019-01-03T00:31:47.727Z,0.80
2019-01-03T00:34:51.990Z,0.80
2019-01-03T00:38:01.241Z,0.80
2019-01-03T00:41:15.331Z,0.80
2019-01-03T00:44:16.926Z,0.70
2019-01-03T00:47:22.179Z,0.70
2019-01-03T00:50:27.552Z,0.70
2019-01-03T00:53:21.922Z,0.70
2019-01-03T00:56:25.194Z,0.70
2019-01-03T00:59:28.971Z,0.70
2019-01-03T01:02:33.277Z,0.80
2019-01-03T01:05:50.420Z,0.70
2019-01-03T01:08:54.539Z,0.70
2019-01-03T01:12:06.791Z,0.70
2019-01-03T01:15:10.104Z,0.70
2019-01-03T01:18:04.845Z,0.70
2019-01-03T01:21:08.462Z,0.70
2019-01-03T01:24:09.537Z,0.70
2019-01-03T01:27:12.832Z,0.70
2019-01-03T01:30:19.713Z,0.70
2019-01-03T01:33:23.447Z,0.70
2019-01-03T01:36:27.173Z,0.70
2019-01-03T01:39:31.114Z,0.70
2019-01-03T01:42:34.555Z,0.70
2019-01-03T01:45:41.342Z,0.70
2019-01-03T01:48:56.898Z,0.70
2019-01-03T01:51:56.562Z,0.60
2019-01-03T01:55:00.211Z,0.60
2019-01-03T01:58:04.071Z,0.50
2019-01-03T02:01:26.850Z,0.50
2019-01-03T02:04:40.562Z,0.50
2019-01-03T02:07:44.234Z,0.50
2019-01-03T02:10:48.305Z,0.50
2019-01-03T02:14:08.589Z,0.50
2019-01-03T02:17:07.071Z,0.50
2019-01-03T02:20:10.829Z,0.50
2019-01-03T02:23:16.378Z,0.40
2019-01-03T02:26:20.198Z,0.50
2019-01-03T02:29:34.109Z,0.40
2019-01-03T02:32:37.563Z,0.40
2019-01-03T02:35:49.596Z,0.40
2019-01-03T02:38:55.215Z,0.40
2019-01-03T02:41:58.924Z,0.40
2019-01-03T02:45:04.833Z,0.40
2019-01-03T02:48:12.146Z,0.30
2019-01-03T02:51:16.200Z,0.30
2019-01-03T02:54:19.971Z,0.30
2019-01-03T02:57:37.444Z,0.30
2019-01-03T03:00:40.752Z,0.20
2019-01-03T03:03:50.438Z,0.20
2019-01-03T03:06:53.827Z,0.10
2019-01-03T03:09:57.631Z,0.10
2019-01-03T03:13:01.055Z,0.10
2019-01-03T03:16:04.618Z,0.00
2019-01-03T03:19:10.017Z,0.10
2019-01-03T03:22:15.278Z,0.00
2019-01-03T03:25:25.814Z,0.00
2019-01-03T03:28:29.982Z,0.00
2019-01-03T03:31:29.783Z,0.00
2019-01-03T03:34:32.848Z,0.00
2019-01-03T03:37:44.097Z,0.00
2019-01-03T03:40:49.094Z,0.00
2019-01-03T03:44:00.729Z,-0.10
2019-01-03T03:47:04.468Z,-0.10
2019-01-03T03:50:18.617Z,-0.10
2019-01-03T03:53:29.460Z,0.00
2019-01-03T03:56:33.203Z,-0.10
2019-01-03T03:59:37.047Z,-0.10
2019-01-03T04:02:40.987Z,0.00
2019-01-03T04:05:46.710Z,0.00
2019-01-03T04:08:50.344Z,-0.10
2019-01-03T04:11:48.932Z,-0.10
2019-01-03T04:15:08.875Z,-0.10
2019-01-03T04:18:19.520Z,-0.10
2019-01-03T04:21:16.060Z,-0.20
2019-01-03T04:24:39.799Z,-0.20
2019-01-03T04:27:47.607Z,-0.20
2019-01-03T04:30:57.209Z,-0.20
2019-01-03T04:34:05.044Z,-0.20
2019-01-03T04:37:07.803Z,-0.20
2019-01-03T04:40:09.628Z,-0.20
2019-01-03T04:43:13.363Z,-0.20
2019-01-03T04:46:16.348Z,-0.20
2019-01-03T04:49:20.031Z,-0.20
2019-01-03T04:52:23.697Z,-0.20
2019-01-03T04:55:27.061Z,-0.20
2019-01-03T04:58:31.995Z,-0.20
2019-01-03T05:02:14.573Z,-0.20
2019-01-03T05:05:31.460Z,-0.20
2019-01-03T05:08:33.669Z,-0.30
2019-01-03T05:11:37.207Z,-0.30
2019-01-03T05:14:43.951Z,-0.20
2019-01-03T05:17:47.607Z,-0.30
2019-01-03T05:20:52.833Z,-0.30
2019-01-03T05:23:57.299Z,-0.30
2019-01-03T05:26:59.703Z,-0.30
2019-01-03T05:30:07.240Z,-0.30
2019-01-03T05:33:15.135Z,-0.30
2019-01-03T05:36:23.002Z,-0.40
2019-01-03T05:39:26.866Z,-0.40
2019-01-03T05:42:37.072Z,-0.40
2019-01-03T05:45:37.574Z,-0.40
2019-01-03T05:48:46.147Z,-0.50
2019-01-03T05:52:05.958Z,-0.40
2019-01-03T05:55:11.867Z,-0.50
2019-01-03T05:58:26.118Z,-0.50
2019-01-03T06:01:35.990Z,-0.60
2019-01-03T06:04:35.811Z,-0.60
2019-01-03T06:07:53.656Z,-0.60
2019-01-03T06:11:10.858Z,-0.60
2019-01-03T06:14:14.051Z,-0.60
2019-01-03T06:17:24.373Z,-0.60
2019-01-03T06:20:32.057Z,-0.60
2019-01-03T06:23:35.315Z,-0.70
2019-01-03T06:26:38.607Z,-0.60
2019-01-03T06:29:43.896Z,-0.70
2019-01-03T06:32:49.342Z,-0.70
2019-01-03T06:36:00.635Z,-0.80
2019-01-03T06:39:09.060Z,-0.70
2019-01-03T06:42:21.811Z,-0.80
2019-01-03T06:45:31.056Z,-0.80
2019-01-03T06:48:42.047Z,-0.80
2019-01-03T06:51:44.101Z,-0.80
2019-01-03T06:54:54.771Z,-0.80
2019-01-03T06:58:13.861Z,-0.80
2019-01-03T07:01:12.247Z,-0.80
2019-01-03T07:04:25.858Z,-0.80
2019-01-03T07:07:36.061Z,-0.70
2019-01-03T07:10:39.517Z,-0.70
2019-01-03T07:13:53.274Z,-0.80
2019-01-03T07:17:01.343Z,-0.80
2019-01-03T07:20:04.595Z,-0.70
2019-01-03T07:23:16.218Z,-0.70
2019-01-03T07:26:27.679Z,-0.70
2019-01-03T07:29:38.403Z,-0.70
2019-01-03T07:32:40.173Z,-0.70
2019-01-03T07:35:50.056Z,-0.70
2019-01-03T07:38:55.116Z,-0.70
2019-01-03T07:41:59.174Z,-0.70
2019-01-03T07:45:02.756Z,-0.70
2019-01-03T07:48:19.545Z,-0.60
2019-01-03T07:51:24.287Z,-0.60
2019-01-03T07:54:47.491Z,-0.60
2019-01-03T07:57:58.406Z,-0.60
2019-01-03T08:01:02.351Z,-0.60
2019-01-03T08:04:15.806Z,-0.60
2019-01-03T08:07:19.658Z,-0.60
2019-01-03T08:10:23.365Z,-0.50
2019-01-03T08:13:38.751Z,-0.40
2019-01-03T08:16:43.742Z,-0.40
2019-01-03T08:19:51.405Z,-0.40
2019-01-03T08:23:01.706Z,-0.40
2019-01-03T08:26:18.771Z,-0.30
2019-01-03T08:29:26.938Z,-0.30
2019-01-03T08:32:36.540Z,-0.20
2019-01-03T08:35:59.764Z,-0.20
2019-01-03T08:39:16.834Z,-0.10
2019-01-03T08:42:22.744Z,-0.10
2019-01-03T08:45:33.846Z,0.00
2019-01-03T08:49:00.365Z,0.00
2019-01-03T08:52:00.960Z,0.10
2019-01-03T08:55:05.100Z,0.10
2019-01-03T08:58:25.427Z,0.20
2019-01-03T09:01:32.115Z,0.20
2019-01-03T09:04:38.505Z,0.30
2019-01-03T09:07:45.506Z,0.30
2019-01-03T09:10:50.251Z,0.30
2019-01-03T09:13:53.828Z,0.40
2019-01-03T09:16:57.841Z,0.50
2019-01-03T09:20:09.463Z,0.50
2019-01-03T09:23:13.726Z,0.60
2019-01-03T09:26:18.370Z,0.60
2019-01-03T09:29:26.014Z,0.60
2019-01-03T09:32:31.262Z,0.70
2019-01-03T09:35:42.611Z,0.70
2019-01-03T09:38:50.601Z,0.80
2019-01-03T09:41:59.172Z,0.80
2019-01-03T09:44:47.494Z,0.90
2019-01-03T09:47:32.626Z,1.00
2019-01-03T09:50:18.593Z,1.00
2019-01-03T09:53:06.043Z,1.10
2019-01-03T09:55:51.414Z,1.10
2019-01-03T09:58:37.407Z,1.20
2019-01-03T10:01:22.864Z,1.30
2019-01-03T10:04:08.999Z,1.40
2019-01-03T10:06:54.765Z,1.50
2019-01-03T10:09:40.242Z,1.60
2019-01-03T10:12:26.019Z,2.10
2019-01-03T10:15:11.978Z,2.10
2019-01-03T10:17:57.618Z,2.10
2019-01-03T10:20:43.109Z,2.10
2019-01-03T10:23:28.788Z,2.10
2019-01-03T10:26:14.455Z,2.30
2019-01-03T10:29:00.150Z,2.40
2019-01-03T10:31:45.470Z,2.40
2019-01-03T10:34:30.802Z,2.50
2019-01-03T10:37:16.282Z,2.50
2019-01-03T10:40:02.374Z,2.90
2019-01-03T10:42:47.638Z,2.80
2019-01-03T10:45:32.825Z,2.70
2019-01-03T10:48:18.506Z,2.80
2019-01-03T10:51:04.215Z,2.80
2019-01-03T10:53:50.046Z,2.80
2019-01-03T10:56:35.481Z,2.80
2019-01-03T10:59:21.196Z,2.80
2019-01-03T11:02:06.574Z,2.80
2019-01-03T11:04:51.695Z,2.80
2019-01-03T11:07:36.915Z,2.80
2019-01-03T11:10:22.230Z,2.80
2019-01-03T11:13:08.178Z,2.80
2019-01-03T11:15:53.942Z,2.90
2019-01-03T11:18:39.558Z,2.90
2019-01-03T11:21:25.069Z,3.00
2019-01-03T11:24:10.933Z,3.10
2019-01-03T11:26:56.653Z,3.10
2019-01-03T11:29:42.153Z,3.20
2019-01-03T11:32:28.218Z,3.30
2019-01-03T11:35:14.346Z,3.40
2019-01-03T11:38:00.061Z,3.40
2019-01-03T11:40:45.782Z,3.50
2019-01-03T11:43:31.478Z,3.60
2019-01-03T11:46:17.370Z,3.60
2019-01-03T11:49:03.161Z,3.60
2019-01-03T11:51:48.715Z,3.60
2019-01-03T11:54:34.107Z,3.60
2019-01-03T11:57:19.449Z,3.70
2019-01-03T12:00:07.024Z,3.70
2019-01-03T12:02:52.952Z,3.70
2019-01-03T12:05:38.473Z,3.70
2019-01-03T12:08:23.811Z,3.70
2019-01-03T12:11:09.040Z,3.70
2019-01-03T12:13:54.557Z,3.70
2019-01-03T12:16:40.019Z,3.80
2019-01-03T12:19:25.569Z,3.90
2019-01-03T12:22:10.977Z,3.90
2019-01-03T12:24:56.932Z,3.90
2019-01-03T12:27:42.273Z,3.90
2019-01-03T12:30:27.608Z,4.00
2019-01-03T12:33:13.162Z,3.90
2019-01-03T12:35:58.639Z,3.90
2019-01-03T12:38:45.065Z,3.80
2019-01-03T12:41:30.485Z,3.80
2019-01-03T12:44:15.989Z,3.80
2019-01-03T12:47:01.225Z,3.80
2019-01-03T12:49:46.458Z,3.80
2019-01-03T12:52:31.938Z,3.80
2019-01-03T12:55:17.352Z,3.90
2019-01-03T12:58:03.507Z,3.80
2019-01-03T13:00:49.007Z,3.90
2019-01-03T13:03:34.528Z,3.90
2019-01-03T13:06:21.149Z,3.90
2019-01-03T13:09:14.595Z,3.90
2019-01-03T13:11:59.950Z,3.90
2019-01-03T13:14:45.628Z,3.80
2019-01-03T13:17:31.497Z,3.90
2019-01-03T13:20:16.948Z,3.80
2019-01-03T13:23:02.561Z,3.80
2019-01-03T13:25:48.328Z,3.90
2019-01-03T13:28:34.247Z,3.90
2019-01-03T13:31:19.912Z,3.90
2019-01-03T13:34:05.064Z,3.90
2019-01-03T13:36:50.965Z,4.00
2019-01-03T13:39:36.386Z,4.00
2019-01-03T13:42:22.452Z,4.00
2019-01-03T13:45:09.493Z,3.90
2019-01-03T13:47:55.073Z,3.90
2019-01-03T13:50:40.656Z,3.90
2019-01-03T13:53:26.408Z,3.80
2019-01-03T13:56:12.023Z,3.80
2019-01-03T13:58:57.651Z,3.80
2019-01-03T14:01:43.578Z,3.80
2019-01-03T14:04:29.039Z,3.70
2019-01-03T14:07:15.041Z,3.70
2019-01-03T14:10:00.845Z,3.80
2019-01-03T14:12:46.810Z,3.80
2019-01-03T14:15:32.701Z,3.80
2019-01-03T14:18:18.187Z,3.80
2019-01-03T14:21:03.969Z,3.80
2019-01-03T14:23:49.411Z,3.80
2019-01-03T14:26:35.031Z,3.70
2019-01-03T14:29:20.402Z,3.70
2019-01-03T14:32:06.305Z,3.70
2019-01-03T14:34:52.015Z,3.70
2019-01-03T14:37:37.485Z,3.60
2019-01-03T14:40:23.248Z,3.60
2019-01-03T14:43:08.933Z,3.60
2019-01-03T14:45:54.621Z,3.60
2019-01-03T14:48:39.633Z,3.50
2019-01-03T14:51:25.884Z,3.50
2019-01-03T14:54:11.641Z,3.40
2019-01-03T14:56:56.899Z,3.40
2019-01-03T14:59:42.790Z,3.30
2019-01-03T15:02:28.107Z,3.20
2019-01-03T15:05:13.996Z,3.20
2019-01-03T15:07:59.698Z,3.10
2019-01-03T15:10:45.354Z,3.10
2019-01-03T15:13:31.426Z,3.10
2019-01-03T15:16:17.374Z,3.00
2019-01-03T15:19:03.091Z,2.90
2019-01-03T15:21:49.342Z,2.90
2019-01-03T15:24:34.903Z,2.80
2019-01-03T15:27:20.548Z,2.80
2019-01-03T15:30:09.010Z,2.80
2019-01-03T15:32:54.539Z,2.80
2019-01-03T15:35:40.366Z,2.70
2019-01-03T15:38:25.998Z,2.70
2019-01-03T15:41:11.491Z,2.70
2019-01-03T15:43:57.223Z,2.60
2019-01-03T15:46:42.899Z,2.60
2019-01-03T15:49:28.575Z,2.60
2019-01-03T15:52:14.395Z,2.60
2019-01-03T15:54:59.843Z,2.60
2019-01-03T15:57:45.117Z,2.60
2019-01-03T16:00:30.718Z,2.60
2019-01-03T16:03:16.507Z,2.60
2019-01-03T16:06:02.399Z,2.50
2019-01-03T16:08:47.554Z,2.50
2019-01-03T16:11:32.790Z,2.50
2019-01-03T16:14:18.766Z,2.50
2019-01-03T16:17:04.195Z,2.50
2019-01-03T16:19:31.099Z,2.40
2019-01-03T16:21:58.304Z,2.50
2019-01-03T16:24:25.412Z,2.40
2019-01-03T16:26:52.743Z,2.40
2019-01-03T16:29:20.155Z,2.40
2019-01-03T16:31:47.089Z,2.40
2019-01-03T16:34:14.168Z,2.30
2019-01-03T16:36:41.621Z,2.40
2019-01-03T16:39:08.643Z,2.30
2019-01-03T16:41:35.985Z,2.30
2019-01-03T16:44:03.306Z,2.30
2019-01-03T16:46:30.669Z,2.30
2019-01-03T16:49:16.346Z,2.20
2019-01-03T16:52:02.122Z,2.20
2019-01-03T16:54:47.627Z,2.10
2019-01-03T16:57:33.604Z,2.10
2019-01-03T17:00:19.487Z,2.10
2019-01-03T17:02:46.541Z,2.10
2019-01-03T17:05:15.093Z,2.00
2019-01-03T17:07:42.054Z,2.00
2019-01-03T17:10:12.042Z,2.00
2019-01-03T17:12:39.225Z,1.90
2019-01-03T17:15:06.574Z,1.90
2019-01-03T17:17:33.741Z,1.90
2019-01-03T17:20:01.083Z,1.90
2019-01-03T17:22:28.080Z,1.80
2019-01-03T17:24:55.202Z,1.80
2019-01-03T17:27:22.439Z,1.80
2019-01-03T17:29:49.652Z,1.80
2019-01-03T17:32:16.654Z,1.80
2019-01-03T17:34:44.291Z,1.70
2019-01-03T17:37:11.478Z,1.70
2019-01-03T17:39:38.423Z,1.70
2019-01-03T17:42:05.574Z,1.70
2019-01-03T17:44:32.777Z,1.60
2019-01-03T17:47:00.000Z,1.60
2019-01-03T17:49:27.291Z,1.60
2019-01-03T17:51:54.674Z,1.60
2019-01-03T17:54:21.692Z,1.50
2019-01-03T17:56:48.594Z,1.60
2019-01-03T17:59:15.486Z,1.50
2019-01-03T18:01:42.415Z,1.50
2019-01-03T18:04:09.542Z,1.50
2019-01-03T18:06:36.597Z,1.50
2019-01-03T18:09:04.350Z,1.50
2019-01-03T18:11:31.587Z,1.50
2019-01-03T18:13:58.483Z,1.40
2019-01-03T18:16:26.067Z,1.40
2019-01-03T18:18:53.080Z,1.40
2019-01-03T18:21:20.139Z,1.40
2019-01-03T18:23:48.434Z,1.40
2019-01-03T18:26:15.554Z,1.40
2019-01-03T18:28:42.471Z,1.40
2019-01-03T18:31:09.873Z,1.40
2019-01-03T18:33:36.874Z,1.30
2019-01-03T18:36:04.127Z,1.40
2019-01-03T18:38:37.868Z,1.30
2019-01-03T18:41:04.816Z,1.30
2019-01-03T18:43:31.848Z,1.30
2019-01-03T18:45:58.799Z,1.20
2019-01-03T18:48:26.129Z,1.20
2019-01-03T18:50:53.007Z,1.20
2019-01-03T18:53:19.961Z,1.20
2019-01-03T18:55:47.219Z,1.20
2019-01-03T18:58:14.413Z,1.20
2019-01-03T19:00:41.483Z,1.20
2019-01-03T19:03:08.811Z,1.20
2019-01-03T19:05:35.911Z,1.10
2019-01-03T19:08:03.163Z,1.10
2019-01-03T19:10:30.315Z,1.10
2019-01-03T19:12:57.627Z,1.10
2019-01-03T19:15:24.918Z,1.10
2019-01-03T19:17:52.168Z,1.10
2019-01-03T19:20:19.361Z,1.10
2019-01-03T19:22:46.923Z,1.10
2019-01-03T19:25:15.871Z,1.00
2019-01-03T19:27:43.294Z,1.00
2019-01-03T19:30:12.691Z,1.00
2019-01-03T19:32:41.458Z,1.10
2019-01-03T19:35:27.403Z,1.10
2019-01-03T19:38:12.772Z,1.10
2019-01-03T19:41:03.228Z,1.00
2019-01-03T19:43:50.823Z,1.00
2019-01-03T19:46:40.103Z,1.10
2019-01-03T19:49:25.997Z,1.00
2019-01-03T19:52:12.535Z,1.10
2019-01-03T19:54:58.913Z,1.00
2019-01-03T19:57:45.764Z,1.00
2019-01-03T20:00:31.922Z,1.00
2019-01-03T20:03:20.522Z,1.00
2019-01-03T20:05:49.287Z,1.00
2019-01-03T20:08:16.407Z,1.00
2019-01-03T20:11:02.253Z,1.00
2019-01-03T20:13:47.959Z,1.00
2019-01-03T20:16:36.178Z,1.00
2019-01-03T20:19:21.989Z,0.90
2019-01-03T20:22:07.678Z,0.90
2019-01-03T20:24:53.638Z,1.00
2019-01-03T20:27:39.142Z,1.00
2019-01-03T20:30:24.932Z,1.00
2019-01-03T20:33:10.557Z,0.90
2019-01-03T20:35:55.922Z,0.90
2019-01-03T20:38:41.950Z,0.90
2019-01-03T20:41:28.600Z,0.90
2019-01-03T20:44:14.072Z,0.90
2019-01-03T20:46:59.894Z,0.80
2019-01-03T20:49:48.070Z,0.90
2019-01-03T20:52:33.860Z,0.90
2019-01-03T20:55:19.643Z,0.80
2019-01-03T20:58:06.416Z,0.80
2019-01-03T21:00:52.919Z,0.80
2019-01-03T21:03:38.326Z,0.80
2019-01-03T21:06:23.739Z,0.90
2019-01-03T21:09:11.304Z,0.80
2019-01-03T21:11:56.914Z,0.90
2019-01-03T21:14:42.607Z,0.90
2019-01-03T21:17:28.486Z,0.90
2019-01-03T21:20:16.122Z,0.90
2019-01-03T21:23:02.135Z,0.90
2019-01-03T21:25:47.803Z,0.90
2019-01-03T21:28:33.227Z,0.90
2019-01-03T21:31:19.059Z,0.90
2019-01-03T21:34:04.761Z,0.90
2019-01-03T21:36:50.439Z,0.90
2019-01-03T21:39:36.284Z,1.00
2019-01-03T21:42:21.651Z,1.00
2019-01-03T21:45:07.933Z,1.00
2019-01-03T21:47:53.063Z,1.00
2019-01-03T21:50:38.355Z,1.00
2019-01-03T21:53:24.090Z,1.10
2019-01-03T21:56:10.569Z,1.20
2019-01-03T21:58:56.212Z,1.20
2019-01-03T22:01:41.803Z,1.20
2019-01-03T22:04:26.966Z,1.20
2019-01-03T22:07:13.263Z,1.20
2019-01-03T22:09:58.706Z,1.20
2019-01-03T22:12:44.414Z,1.20
2019-01-03T22:15:29.907Z,1.10
2019-01-03T22:18:16.006Z,1.10
2019-01-03T22:21:02.309Z,1.10
2019-01-03T22:23:48.160Z,1.10
2019-01-03T22:26:34.107Z,1.10
2019-01-03T22:29:19.759Z,1.10
2019-01-03T22:32:05.717Z,1.10
2019-01-03T22:34:51.639Z,1.10
2019-01-03T22:37:37.398Z,1.10
2019-01-03T22:40:23.114Z,1.10
2019-01-03T22:43:08.685Z,1.20
2019-01-03T22:45:54.095Z,1.20
2019-01-03T22:48:40.048Z,1.30
2019-01-03T22:51:25.538Z,1.30
2019-01-03T22:54:10.989Z,1.30
2019-01-03T22:56:57.625Z,1.30
2019-01-03T22:59:43.267Z,1.40
2019-01-03T23:02:29.067Z,1.40
2019-01-03T23:05:14.679Z,1.40
2019-01-03T23:08:00.143Z,1.40
2019-01-03T23:10:46.353Z,1.40
2019-01-03T23:13:31.779Z,1.50
2019-01-03T23:16:17.811Z,1.50
2019-01-03T23:19:03.382Z,1.50
2019-01-03T23:21:48.787Z,1.60
2019-01-03T23:24:34.753Z,1.60
2019-01-03T23:27:20.334Z,1.60
2019-01-03T23:30:06.759Z,1.70
2019-01-03T23:32:52.234Z,1.70
2019-01-03T23:35:37.628Z,1.70
2019-01-03T23:38:23.603Z,1.70
2019-01-03T23:41:09.061Z,1.70
2019-01-03T23:43:54.847Z,1.60
2019-01-03T23:46:40.122Z,1.60
2019-01-03T23:49:25.980Z,1.60
2019-01-03T23:52:11.250Z,1.50
2019-01-03T23:54:57.399Z,1.60
2019-01-03T23:57:42.594Z,1.50
